sensor_id;sensor_type;location;lat;lon;timestamp;P1;durP1;ratioP1;P2;durP2;ratioP2
10979;SDS011;5543;51.734;8.744;2023-02-17T00:02:15;2.72;;;2.20;;
10979;SDS011;5543;51.734;8.744;2023-02-17T00:04:44;4.82;;;2.80;;
10979;SDS011;5543;51.734;8.744;2023-02-17T00:07:12;3.75;;;2.33;;
10979;SDS011;5543;51.734;8.744;2023-02-17T00:09:41;3.05;;;2.10;;
10979;SDS011;5543;51.734;8.744;2023-02-17T00:12:09;3.42;;;2.20;;
10979;SDS011;5543;51.734;8.744;2023-02-17T00:14:37;2.90;;;2.17;;
10979;SDS011;5543;51.734;8.744;2023-02-17T00:17:06;4.00;;;2.13;;
10979;SDS011;5543;51.734;8.744;2023-02-17T00:19:34;4.47;;;2.47;;
10979;SDS011;5543;51.734;8.744;2023-02-17T00:22:03;6.03;;;3.10;;
10979;SDS011;5543;51.734;8.744;2023-02-17T00:24:31;3.03;;;2.00;;
10979;SDS011;5543;51.734;8.744;2023-02-17T00:27:03;4.43;;;2.72;;
10979;SDS011;5543;51.734;8.744;2023-02-17T00:29:32;3.95;;;2.58;;
10979;SDS011;5543;51.734;8.744;2023-02-17T00:32:00;4.20;;;2.58;;
10979;SDS011;5543;51.734;8.744;2023-02-17T00:34:29;3.28;;;2.13;;
10979;SDS011;5543;51.734;8.744;2023-02-17T00:36:58;3.10;;;2.20;;
10979;SDS011;5543;51.734;8.744;2023-02-17T00:39:27;3.25;;;2.35;;
10979;SDS011;5543;51.734;8.744;2023-02-17T00:41:55;3.67;;;2.83;;
10979;SDS011;5543;51.734;8.744;2023-02-17T00:44:24;3.72;;;2.30;;
10979;SDS011;5543;51.734;8.744;2023-02-17T00:46:52;4.15;;;2.70;;
10979;SDS011;5543;51.734;8.744;2023-02-17T00:49:21;3.95;;;2.53;;
10979;SDS011;5543;51.734;8.744;2023-02-17T00:51:50;3.58;;;2.20;;
10979;SDS011;5543;51.734;8.744;2023-02-17T00:54:19;3.47;;;2.47;;
10979;SDS011;5543;51.734;8.744;2023-02-17T00:56:48;4.95;;;2.95;;
10979;SDS011;5543;51.734;8.744;2023-02-17T00:59:17;3.75;;;2.50;;
10979;SDS011;5543;51.734;8.744;2023-02-17T01:01:45;4.35;;;2.63;;
10979;SDS011;5543;51.734;8.744;2023-02-17T01:04:13;4.38;;;2.50;;
10979;SDS011;5543;51.734;8.744;2023-02-17T01:06:41;3.25;;;2.10;;
10979;SDS011;5543;51.734;8.744;2023-02-17T01:09:11;4.35;;;2.75;;
10979;SDS011;5543;51.734;8.744;2023-02-17T01:11:40;3.75;;;2.08;;
10979;SDS011;5543;51.734;8.744;2023-02-17T01:14:11;5.15;;;3.35;;
10979;SDS011;5543;51.734;8.744;2023-02-17T01:16:41;4.20;;;2.60;;
10979;SDS011;5543;51.734;8.744;2023-02-17T01:19:13;6.07;;;2.70;;
10979;SDS011;5543;51.734;8.744;2023-02-17T01:21:43;5.60;;;3.08;;
10979;SDS011;5543;51.734;8.744;2023-02-17T01:24:12;5.03;;;2.72;;
10979;SDS011;5543;51.734;8.744;2023-02-17T01:26:40;4.63;;;2.40;;
10979;SDS011;5543;51.734;8.744;2023-02-17T01:29:08;4.90;;;2.72;;
10979;SDS011;5543;51.734;8.744;2023-02-17T01:31:38;4.53;;;2.80;;
10979;SDS011;5543;51.734;8.744;2023-02-17T01:34:07;3.47;;;2.53;;
10979;SDS011;5543;51.734;8.744;2023-02-17T01:36:36;4.80;;;3.03;;
10979;SDS011;5543;51.734;8.744;2023-02-17T01:39:05;6.05;;;2.83;;
10979;SDS011;5543;51.734;8.744;2023-02-17T01:41:33;5.55;;;3.30;;
10979;SDS011;5543;51.734;8.744;2023-02-17T01:44:05;4.65;;;2.78;;
10979;SDS011;5543;51.734;8.744;2023-02-17T01:46:38;4.50;;;2.92;;
10979;SDS011;5543;51.734;8.744;2023-02-17T01:49:11;8.50;;;4.05;;
10979;SDS011;5543;51.734;8.744;2023-02-17T01:51:48;4.90;;;2.72;;
10979;SDS011;5543;51.734;8.744;2023-02-17T01:54:19;4.38;;;3.08;;
10979;SDS011;5543;51.734;8.744;2023-02-17T01:56:51;6.78;;;3.55;;
10979;SDS011;5543;51.734;8.744;2023-02-17T01:59:21;5.72;;;3.45;;
10979;SDS011;5543;51.734;8.744;2023-02-17T02:01:52;8.25;;;4.35;;
10979;SDS011;5543;51.734;8.744;2023-02-17T02:04:25;5.45;;;3.50;;
10979;SDS011;5543;51.734;8.744;2023-02-17T02:06:56;4.18;;;2.90;;
10979;SDS011;5543;51.734;8.744;2023-02-17T02:09:25;4.82;;;2.80;;
10979;SDS011;5543;51.734;8.744;2023-02-17T02:11:58;6.25;;;3.20;;
10979;SDS011;5543;51.734;8.744;2023-02-17T02:14:26;6.05;;;3.42;;
10979;SDS011;5543;51.734;8.744;2023-02-17T02:16:58;6.78;;;4.03;;
10979;SDS011;5543;51.734;8.744;2023-02-17T02:19:44;7.45;;;4.05;;
10979;SDS011;5543;51.734;8.744;2023-02-17T02:28:51;7.43;;;3.53;;
10979;SDS011;5543;51.734;8.744;2023-02-17T02:31:41;8.38;;;4.55;;
10979;SDS011;5543;51.734;8.744;2023-02-17T02:34:18;6.25;;;3.22;;
10979;SDS011;5543;51.734;8.744;2023-02-17T02:36:49;6.45;;;3.47;;
10979;SDS011;5543;51.734;8.744;2023-02-17T02:39:22;4.70;;;3.20;;
10979;SDS011;5543;51.734;8.744;2023-02-17T02:41:54;6.72;;;3.90;;
10979;SDS011;5543;51.734;8.744;2023-02-17T02:44:27;4.78;;;3.30;;
10979;SDS011;5543;51.734;8.744;2023-02-17T02:46:56;6.82;;;4.30;;
10979;SDS011;5543;51.734;8.744;2023-02-17T02:49:26;7.72;;;3.92;;
10979;SDS011;5543;51.734;8.744;2023-02-17T02:51:56;7.40;;;4.07;;
10979;SDS011;5543;51.734;8.744;2023-02-17T02:54:33;7.45;;;4.40;;
10979;SDS011;5543;51.734;8.744;2023-02-17T02:57:13;8.60;;;4.72;;
10979;SDS011;5543;51.734;8.744;2023-02-17T02:59:50;6.25;;;4.00;;
10979;SDS011;5543;51.734;8.744;2023-02-17T03:02:28;6.35;;;3.35;;
10979;SDS011;5543;51.734;8.744;2023-02-17T03:05:06;8.10;;;4.50;;
10979;SDS011;5543;51.734;8.744;2023-02-17T03:07:39;6.60;;;4.38;;
10979;SDS011;5543;51.734;8.744;2023-02-17T03:10:14;7.80;;;4.72;;
10979;SDS011;5543;51.734;8.744;2023-02-17T03:12:43;7.88;;;4.13;;
10979;SDS011;5543;51.734;8.744;2023-02-17T03:15:12;7.55;;;3.67;;
10979;SDS011;5543;51.734;8.744;2023-02-17T03:17:42;5.40;;;3.60;;
10979;SDS011;5543;51.734;8.744;2023-02-17T03:20:12;6.93;;;3.70;;
10979;SDS011;5543;51.734;8.744;2023-02-17T03:22:42;12.05;;;4.50;;
10979;SDS011;5543;51.734;8.744;2023-02-17T03:25:13;11.25;;;4.40;;
10979;SDS011;5543;51.734;8.744;2023-02-17T03:27:42;6.38;;;3.50;;
10979;SDS011;5543;51.734;8.744;2023-02-17T03:30:11;8.57;;;4.57;;
10979;SDS011;5543;51.734;8.744;2023-02-17T03:32:39;7.40;;;3.80;;
10979;SDS011;5543;51.734;8.744;2023-02-17T03:35:07;7.63;;;4.22;;
10979;SDS011;5543;51.734;8.744;2023-02-17T03:37:37;7.53;;;4.28;;
10979;SDS011;5543;51.734;8.744;2023-02-17T03:40:06;9.93;;;4.75;;
10979;SDS011;5543;51.734;8.744;2023-02-17T03:42:35;6.70;;;4.15;;
10979;SDS011;5543;51.734;8.744;2023-02-17T03:45:03;6.90;;;3.45;;
10979;SDS011;5543;51.734;8.744;2023-02-17T03:47:31;5.72;;;3.58;;
10979;SDS011;5543;51.734;8.744;2023-02-17T03:49:59;5.22;;;3.88;;
10979;SDS011;5543;51.734;8.744;2023-02-17T03:52:27;6.18;;;4.05;;
10979;SDS011;5543;51.734;8.744;2023-02-17T03:54:57;9.13;;;4.45;;
10979;SDS011;5543;51.734;8.744;2023-02-17T03:57:25;5.40;;;3.25;;
10979;SDS011;5543;51.734;8.744;2023-02-17T03:59:53;5.78;;;3.45;;
10979;SDS011;5543;51.734;8.744;2023-02-17T04:02:21;5.00;;;3.47;;
10979;SDS011;5543;51.734;8.744;2023-02-17T04:04:49;7.93;;;5.05;;
10979;SDS011;5543;51.734;8.744;2023-02-17T04:07:17;4.95;;;3.35;;
10979;SDS011;5543;51.734;8.744;2023-02-17T04:09:45;7.20;;;3.55;;
10979;SDS011;5543;51.734;8.744;2023-02-17T04:12:14;5.72;;;3.20;;
10979;SDS011;5543;51.734;8.744;2023-02-17T04:14:42;6.03;;;3.65;;
10979;SDS011;5543;51.734;8.744;2023-02-17T04:17:11;6.20;;;3.45;;
10979;SDS011;5543;51.734;8.744;2023-02-17T04:19:39;7.22;;;3.35;;
10979;SDS011;5543;51.734;8.744;2023-02-17T04:22:07;5.68;;;3.78;;
10979;SDS011;5543;51.734;8.744;2023-02-17T04:24:35;6.00;;;3.28;;
10979;SDS011;5543;51.734;8.744;2023-02-17T04:27:05;5.20;;;2.80;;
10979;SDS011;5543;51.734;8.744;2023-02-17T04:29:35;5.60;;;3.75;;
10979;SDS011;5543;51.734;8.744;2023-02-17T04:32:03;5.15;;;2.80;;
10979;SDS011;5543;51.734;8.744;2023-02-17T04:34:31;5.93;;;4.10;;
10979;SDS011;5543;51.734;8.744;2023-02-17T04:36:59;4.85;;;3.00;;
10979;SDS011;5543;51.734;8.744;2023-02-17T04:39:27;4.60;;;3.67;;
10979;SDS011;5543;51.734;8.744;2023-02-17T04:41:56;6.25;;;3.75;;
10979;SDS011;5543;51.734;8.744;2023-02-17T04:44:24;6.72;;;3.53;;
10979;SDS011;5543;51.734;8.744;2023-02-17T04:46:53;7.40;;;3.90;;
10979;SDS011;5543;51.734;8.744;2023-02-17T04:49:21;5.68;;;3.78;;
10979;SDS011;5543;51.734;8.744;2023-02-17T04:51:49;6.43;;;3.17;;
10979;SDS011;5543;51.734;8.744;2023-02-17T04:54:17;6.72;;;3.58;;
10979;SDS011;5543;51.734;8.744;2023-02-17T04:56:46;6.38;;;3.42;;
10979;SDS011;5543;51.734;8.744;2023-02-17T04:59:14;5.10;;;3.63;;
10979;SDS011;5543;51.734;8.744;2023-02-17T05:01:42;5.03;;;3.45;;
10979;SDS011;5543;51.734;8.744;2023-02-17T05:04:11;6.00;;;3.22;;
10979;SDS011;5543;51.734;8.744;2023-02-17T05:06:39;4.63;;;3.53;;
10979;SDS011;5543;51.734;8.744;2023-02-17T05:09:07;5.05;;;3.08;;
10979;SDS011;5543;51.734;8.744;2023-02-17T05:11:36;6.47;;;3.78;;
10979;SDS011;5543;51.734;8.744;2023-02-17T05:14:04;5.97;;;3.38;;
10979;SDS011;5543;51.734;8.744;2023-02-17T05:16:32;5.40;;;3.08;;
10979;SDS011;5543;51.734;8.744;2023-02-17T05:19:00;8.65;;;3.58;;
10979;SDS011;5543;51.734;8.744;2023-02-17T05:21:29;4.75;;;3.53;;
10979;SDS011;5543;51.734;8.744;2023-02-17T05:23:58;3.90;;;2.78;;
10979;SDS011;5543;51.734;8.744;2023-02-17T05:26:26;4.75;;;3.00;;
10979;SDS011;5543;51.734;8.744;2023-02-17T05:28:54;6.63;;;3.10;;
10979;SDS011;5543;51.734;8.744;2023-02-17T05:31:22;5.28;;;2.90;;
10979;SDS011;5543;51.734;8.744;2023-02-17T05:33:52;6.07;;;2.85;;
10979;SDS011;5543;51.734;8.744;2023-02-17T05:36:20;4.60;;;2.92;;
10979;SDS011;5543;51.734;8.744;2023-02-17T05:38:49;5.03;;;2.70;;
10979;SDS011;5543;51.734;8.744;2023-02-17T05:41:17;5.05;;;2.90;;
10979;SDS011;5543;51.734;8.744;2023-02-17T05:43:46;3.63;;;2.78;;
10979;SDS011;5543;51.734;8.744;2023-02-17T05:46:14;3.47;;;2.35;;
10979;SDS011;5543;51.734;8.744;2023-02-17T05:48:42;4.20;;;2.70;;
10979;SDS011;5543;51.734;8.744;2023-02-17T05:51:11;5.93;;;3.08;;
10979;SDS011;5543;51.734;8.744;2023-02-17T05:53:42;4.35;;;2.70;;
10979;SDS011;5543;51.734;8.744;2023-02-17T05:56:12;4.53;;;2.53;;
10979;SDS011;5543;51.734;8.744;2023-02-17T05:58:40;4.13;;;2.83;;
10979;SDS011;5543;51.734;8.744;2023-02-17T06:01:08;5.47;;;2.75;;
10979;SDS011;5543;51.734;8.744;2023-02-17T06:03:37;4.57;;;3.08;;
10979;SDS011;5543;51.734;8.744;2023-02-17T06:06:06;3.47;;;2.60;;
10979;SDS011;5543;51.734;8.744;2023-02-17T06:08:35;5.10;;;2.85;;
10979;SDS011;5543;51.734;8.744;2023-02-17T06:11:04;4.82;;;2.75;;
10979;SDS011;5543;51.734;8.744;2023-02-17T06:13:33;3.50;;;2.55;;
10979;SDS011;5543;51.734;8.744;2023-02-17T06:16:02;4.75;;;3.30;;
10979;SDS011;5543;51.734;8.744;2023-02-17T06:18:31;4.45;;;2.78;;
10979;SDS011;5543;51.734;8.744;2023-02-17T06:20:59;4.50;;;3.00;;
10979;SDS011;5543;51.734;8.744;2023-02-17T06:23:27;4.47;;;2.50;;
10979;SDS011;5543;51.734;8.744;2023-02-17T06:25:56;5.90;;;3.20;;
10979;SDS011;5543;51.734;8.744;2023-02-17T06:28:24;4.93;;;3.08;;
10979;SDS011;5543;51.734;8.744;2023-02-17T06:30:53;5.45;;;3.47;;
10979;SDS011;5543;51.734;8.744;2023-02-17T06:33:22;5.13;;;3.05;;
10979;SDS011;5543;51.734;8.744;2023-02-17T06:35:50;3.92;;;2.20;;
10979;SDS011;5543;51.734;8.744;2023-02-17T06:38:18;3.45;;;2.53;;
10979;SDS011;5543;51.734;8.744;2023-02-17T06:40:47;7.75;;;3.22;;
10979;SDS011;5543;51.734;8.744;2023-02-17T06:43:15;6.20;;;2.97;;
10979;SDS011;5543;51.734;8.744;2023-02-17T06:45:43;5.93;;;2.97;;
10979;SDS011;5543;51.734;8.744;2023-02-17T06:48:12;6.40;;;3.20;;
10979;SDS011;5543;51.734;8.744;2023-02-17T06:50:40;3.33;;;2.60;;
10979;SDS011;5543;51.734;8.744;2023-02-17T06:53:09;5.00;;;2.83;;
10979;SDS011;5543;51.734;8.744;2023-02-17T06:55:37;3.97;;;2.90;;
10979;SDS011;5543;51.734;8.744;2023-02-17T06:58:05;4.57;;;2.88;;
10979;SDS011;5543;51.734;8.744;2023-02-17T07:00:35;4.32;;;2.67;;
10979;SDS011;5543;51.734;8.744;2023-02-17T07:03:04;3.75;;;2.60;;
10979;SDS011;5543;51.734;8.744;2023-02-17T07:05:34;4.47;;;2.83;;
10979;SDS011;5543;51.734;8.744;2023-02-17T07:08:03;3.47;;;2.53;;
10979;SDS011;5543;51.734;8.744;2023-02-17T07:10:31;5.28;;;2.80;;
10979;SDS011;5543;51.734;8.744;2023-02-17T07:12:59;3.50;;;2.38;;
10979;SDS011;5543;51.734;8.744;2023-02-17T07:15:27;4.97;;;3.38;;
10979;SDS011;5543;51.734;8.744;2023-02-17T07:17:55;4.25;;;2.88;;
10979;SDS011;5543;51.734;8.744;2023-02-17T07:20:24;3.85;;;2.47;;
10979;SDS011;5543;51.734;8.744;2023-02-17T07:22:53;5.57;;;3.03;;
10979;SDS011;5543;51.734;8.744;2023-02-17T07:25:21;5.20;;;3.22;;
10979;SDS011;5543;51.734;8.744;2023-02-17T07:27:49;3.92;;;2.80;;
10979;SDS011;5543;51.734;8.744;2023-02-17T07:30:18;6.10;;;3.20;;
10979;SDS011;5543;51.734;8.744;2023-02-17T07:32:46;4.57;;;2.58;;
10979;SDS011;5543;51.734;8.744;2023-02-17T07:35:14;4.15;;;2.78;;
10979;SDS011;5543;51.734;8.744;2023-02-17T07:37:43;3.50;;;2.83;;
10979;SDS011;5543;51.734;8.744;2023-02-17T07:40:13;5.60;;;3.13;;
10979;SDS011;5543;51.734;8.744;2023-02-17T07:42:41;4.75;;;2.65;;
10979;SDS011;5543;51.734;8.744;2023-02-17T07:45:09;3.67;;;2.42;;
10979;SDS011;5543;51.734;8.744;2023-02-17T07:47:37;4.88;;;3.10;;
10979;SDS011;5543;51.734;8.744;2023-02-17T07:50:06;4.10;;;3.17;;
10979;SDS011;5543;51.734;8.744;2023-02-17T07:52:35;6.15;;;3.30;;
10979;SDS011;5543;51.734;8.744;2023-02-17T07:55:03;3.70;;;2.55;;
10979;SDS011;5543;51.734;8.744;2023-02-17T07:57:34;4.10;;;2.78;;
10979;SDS011;5543;51.734;8.744;2023-02-17T08:00:03;3.83;;;2.80;;
10979;SDS011;5543;51.734;8.744;2023-02-17T08:02:35;8.40;;;4.68;;
10979;SDS011;5543;51.734;8.744;2023-02-17T08:05:03;10.38;;;4.78;;
10979;SDS011;5543;51.734;8.744;2023-02-17T08:07:31;7.78;;;3.38;;
10979;SDS011;5543;51.734;8.744;2023-02-17T08:10:00;4.28;;;3.17;;
10979;SDS011;5543;51.734;8.744;2023-02-17T08:12:47;5.60;;;3.83;;
10979;SDS011;5543;51.734;8.744;2023-02-17T08:15:33;6.38;;;3.20;;
10979;SDS011;5543;51.734;8.744;2023-02-17T08:18:01;6.88;;;3.53;;
10979;SDS011;5543;51.734;8.744;2023-02-17T08:20:30;5.47;;;3.20;;
10979;SDS011;5543;51.734;8.744;2023-02-17T08:23:00;4.88;;;3.22;;
10979;SDS011;5543;51.734;8.744;2023-02-17T08:25:30;4.78;;;3.17;;
10979;SDS011;5543;51.734;8.744;2023-02-17T08:28:01;6.93;;;3.58;;
10979;SDS011;5543;51.734;8.744;2023-02-17T08:30:34;5.10;;;3.03;;
10979;SDS011;5543;51.734;8.744;2023-02-17T08:33:03;5.28;;;3.05;;
10979;SDS011;5543;51.734;8.744;2023-02-17T08:35:32;5.72;;;3.33;;
10979;SDS011;5543;51.734;8.744;2023-02-17T08:38:00;5.65;;;2.45;;
10979;SDS011;5543;51.734;8.744;2023-02-17T08:40:28;4.97;;;3.70;;
10979;SDS011;5543;51.734;8.744;2023-02-17T08:42:56;5.53;;;3.40;;
10979;SDS011;5543;51.734;8.744;2023-02-17T08:45:28;6.65;;;3.47;;
10979;SDS011;5543;51.734;8.744;2023-02-17T08:47:57;4.55;;;3.13;;
10979;SDS011;5543;51.734;8.744;2023-02-17T08:50:25;6.28;;;4.10;;
10979;SDS011;5543;51.734;8.744;2023-02-17T08:52:54;6.60;;;4.18;;
10979;SDS011;5543;51.734;8.744;2023-02-17T08:55:22;7.07;;;3.65;;
10979;SDS011;5543;51.734;8.744;2023-02-17T08:57:51;7.50;;;3.53;;
10979;SDS011;5543;51.734;8.744;2023-02-17T09:00:19;6.68;;;3.05;;
10979;SDS011;5543;51.734;8.744;2023-02-17T09:02:49;5.15;;;3.03;;
10979;SDS011;5543;51.734;8.744;2023-02-17T09:05:17;4.25;;;2.45;;
10979;SDS011;5543;51.734;8.744;2023-02-17T09:07:46;4.05;;;2.90;;
10979;SDS011;5543;51.734;8.744;2023-02-17T09:10:14;3.53;;;2.47;;
10979;SDS011;5543;51.734;8.744;2023-02-17T09:12:42;4.32;;;2.65;;
10979;SDS011;5543;51.734;8.744;2023-02-17T09:15:11;5.07;;;2.85;;
10979;SDS011;5543;51.734;8.744;2023-02-17T09:17:39;4.43;;;2.35;;
10979;SDS011;5543;51.734;8.744;2023-02-17T09:20:09;7.78;;;2.92;;
10979;SDS011;5543;51.734;8.744;2023-02-17T09:22:50;3.58;;;2.38;;
10979;SDS011;5543;51.734;8.744;2023-02-17T09:25:18;4.07;;;2.58;;
10979;SDS011;5543;51.734;8.744;2023-02-17T09:27:46;2.90;;;2.10;;
10979;SDS011;5543;51.734;8.744;2023-02-17T09:30:15;6.57;;;2.65;;
10979;SDS011;5543;51.734;8.744;2023-02-17T09:32:43;4.28;;;1.90;;
10979;SDS011;5543;51.734;8.744;2023-02-17T09:35:14;3.17;;;2.17;;
10979;SDS011;5543;51.734;8.744;2023-02-17T09:37:43;2.80;;;2.33;;
10979;SDS011;5543;51.734;8.744;2023-02-17T09:40:14;3.72;;;2.47;;
10979;SDS011;5543;51.734;8.744;2023-02-17T09:42:45;3.78;;;2.38;;
10979;SDS011;5543;51.734;8.744;2023-02-17T09:45:16;4.18;;;2.25;;
10979;SDS011;5543;51.734;8.744;2023-02-17T09:47:48;4.15;;;2.22;;
10979;SDS011;5543;51.734;8.744;2023-02-17T09:50:22;3.20;;;2.15;;
10979;SDS011;5543;51.734;8.744;2023-02-17T09:52:56;3.00;;;2.08;;
10979;SDS011;5543;51.734;8.744;2023-02-17T09:55:30;2.85;;;2.00;;
10979;SDS011;5543;51.734;8.744;2023-02-17T09:58:05;4.25;;;2.30;;
10979;SDS011;5543;51.734;8.744;2023-02-17T10:00:37;2.65;;;2.05;;
10979;SDS011;5543;51.734;8.744;2023-02-17T10:03:10;3.55;;;2.40;;
10979;SDS011;5543;51.734;8.744;2023-02-17T10:05:47;3.05;;;2.22;;
10979;SDS011;5543;51.734;8.744;2023-02-17T10:08:22;4.35;;;2.05;;
10979;SDS011;5543;51.734;8.744;2023-02-17T10:10:55;3.40;;;2.25;;
10979;SDS011;5543;51.734;8.744;2023-02-17T10:13:29;3.35;;;2.10;;
10979;SDS011;5543;51.734;8.744;2023-02-17T10:16:03;3.45;;;2.60;;
10979;SDS011;5543;51.734;8.744;2023-02-17T10:18:36;3.42;;;2.38;;
10979;SDS011;5543;51.734;8.744;2023-02-17T10:21:09;3.80;;;2.53;;
10979;SDS011;5543;51.734;8.744;2023-02-17T10:23:44;4.03;;;2.72;;
10979;SDS011;5543;51.734;8.744;2023-02-17T10:26:15;5.18;;;2.88;;
10979;SDS011;5543;51.734;8.744;2023-02-17T10:28:50;5.05;;;3.10;;
10979;SDS011;5543;51.734;8.744;2023-02-17T10:31:25;4.03;;;2.80;;
10979;SDS011;5543;51.734;8.744;2023-02-17T10:34:02;5.47;;;3.35;;
10979;SDS011;5543;51.734;8.744;2023-02-17T10:36:35;4.45;;;2.55;;
10979;SDS011;5543;51.734;8.744;2023-02-17T10:39:13;4.22;;;2.78;;
10979;SDS011;5543;51.734;8.744;2023-02-17T10:41:49;5.53;;;2.83;;
10979;SDS011;5543;51.734;8.744;2023-02-17T10:44:20;3.67;;;2.58;;
10979;SDS011;5543;51.734;8.744;2023-02-17T10:46:50;4.65;;;3.35;;
10979;SDS011;5543;51.734;8.744;2023-02-17T10:49:21;5.68;;;2.95;;
10979;SDS011;5543;51.734;8.744;2023-02-17T10:51:55;4.55;;;2.80;;
10979;SDS011;5543;51.734;8.744;2023-02-17T10:54:28;3.47;;;2.67;;
10979;SDS011;5543;51.734;8.744;2023-02-17T10:57:02;6.05;;;2.72;;
10979;SDS011;5543;51.734;8.744;2023-02-17T10:59:36;3.17;;;2.38;;
10979;SDS011;5543;51.734;8.744;2023-02-17T11:02:15;4.13;;;2.28;;
10979;SDS011;5543;51.734;8.744;2023-02-17T11:04:46;6.18;;;3.05;;
10979;SDS011;5543;51.734;8.744;2023-02-17T11:07:17;3.22;;;2.15;;
10979;SDS011;5543;51.734;8.744;2023-02-17T11:09:50;3.97;;;2.53;;
10979;SDS011;5543;51.734;8.744;2023-02-17T11:12:24;3.13;;;1.98;;
10979;SDS011;5543;51.734;8.744;2023-02-17T11:14:55;3.35;;;2.22;;
10979;SDS011;5543;51.734;8.744;2023-02-17T11:17:25;2.53;;;2.10;;
10979;SDS011;5543;51.734;8.744;2023-02-17T11:19:57;3.10;;;2.20;;
10979;SDS011;5543;51.734;8.744;2023-02-17T11:22:32;2.90;;;2.25;;
10979;SDS011;5543;51.734;8.744;2023-02-17T11:25:03;3.35;;;1.90;;
10979;SDS011;5543;51.734;8.744;2023-02-17T11:27:33;2.67;;;2.17;;
10979;SDS011;5543;51.734;8.744;2023-02-17T11:30:06;4.35;;;2.60;;
10979;SDS011;5543;51.734;8.744;2023-02-17T11:32:41;2.80;;;2.22;;
10979;SDS011;5543;51.734;8.744;2023-02-17T11:35:18;3.42;;;2.17;;
10979;SDS011;5543;51.734;8.744;2023-02-17T11:37:50;4.13;;;2.92;;
10979;SDS011;5543;51.734;8.744;2023-02-17T11:40:27;4.03;;;2.28;;
10979;SDS011;5543;51.734;8.744;2023-02-17T11:42:57;2.58;;;1.95;;
10979;SDS011;5543;51.734;8.744;2023-02-17T11:45:27;2.88;;;2.33;;
10979;SDS011;5543;51.734;8.744;2023-02-17T11:48:06;3.20;;;2.08;;
10979;SDS011;5543;51.734;8.744;2023-02-17T11:50:47;2.83;;;1.70;;
10979;SDS011;5543;51.734;8.744;2023-02-17T11:53:25;2.97;;;1.73;;
10979;SDS011;5543;51.734;8.744;2023-02-17T11:56:10;2.55;;;1.67;;
10979;SDS011;5543;51.734;8.744;2023-02-17T11:58:47;2.83;;;1.90;;
10979;SDS011;5543;51.734;8.744;2023-02-17T12:01:45;2.50;;;1.88;;
10979;SDS011;5543;51.734;8.744;2023-02-17T12:04:28;1.92;;;1.60;;
10979;SDS011;5543;51.734;8.744;2023-02-17T12:07:02;2.25;;;2.00;;
10979;SDS011;5543;51.734;8.744;2023-02-17T12:09:46;4.30;;;2.13;;
10979;SDS011;5543;51.734;8.744;2023-02-17T12:12:20;2.67;;;1.63;;
10979;SDS011;5543;51.734;8.744;2023-02-17T12:15:00;2.72;;;1.77;;
10979;SDS011;5543;51.734;8.744;2023-02-17T12:17:44;2.35;;;1.67;;
10979;SDS011;5543;51.734;8.744;2023-02-17T12:20:27;2.80;;;1.80;;
10979;SDS011;5543;51.734;8.744;2023-02-17T12:23:12;3.70;;;1.58;;
10979;SDS011;5543;51.734;8.744;2023-02-17T12:25:56;2.78;;;1.60;;
10979;SDS011;5543;51.734;8.744;2023-02-17T12:31:26;2.00;;;1.55;;
10979;SDS011;5543;51.734;8.744;2023-02-17T12:34:14;2.28;;;1.48;;
10979;SDS011;5543;51.734;8.744;2023-02-17T12:36:48;2.60;;;1.75;;
10979;SDS011;5543;51.734;8.744;2023-02-17T12:39:19;1.55;;;1.45;;
10979;SDS011;5543;51.734;8.744;2023-02-17T12:41:52;1.63;;;1.40;;
10979;SDS011;5543;51.734;8.744;2023-02-17T12:44:27;1.60;;;1.50;;
10979;SDS011;5543;51.734;8.744;2023-02-17T12:46:58;2.80;;;1.98;;
10979;SDS011;5543;51.734;8.744;2023-02-17T12:49:33;2.45;;;1.58;;
10979;SDS011;5543;51.734;8.744;2023-02-17T12:52:07;2.72;;;1.55;;
10979;SDS011;5543;51.734;8.744;2023-02-17T12:54:41;2.58;;;1.85;;
10979;SDS011;5543;51.734;8.744;2023-02-17T12:57:19;2.92;;;1.35;;
10979;SDS011;5543;51.734;8.744;2023-02-17T12:59:50;1.60;;;1.50;;
10979;SDS011;5543;51.734;8.744;2023-02-17T13:02:20;2.60;;;1.45;;
10979;SDS011;5543;51.734;8.744;2023-02-17T13:04:51;2.90;;;2.10;;
10979;SDS011;5543;51.734;8.744;2023-02-17T13:07:25;2.15;;;1.55;;
10979;SDS011;5543;51.734;8.744;2023-02-17T13:10:19;1.48;;;1.35;;
10979;SDS011;5543;51.734;8.744;2023-02-17T13:12:58;2.60;;;1.58;;
10979;SDS011;5543;51.734;8.744;2023-02-17T13:15:32;2.40;;;1.20;;
10979;SDS011;5543;51.734;8.744;2023-02-17T13:18:04;3.05;;;1.70;;
10979;SDS011;5543;51.734;8.744;2023-02-17T13:23:34;3.05;;;1.98;;
10979;SDS011;5543;51.734;8.744;2023-02-17T13:29:18;1.50;;;1.40;;
10979;SDS011;5543;51.734;8.744;2023-02-17T13:31:58;3.08;;;1.77;;
10979;SDS011;5543;51.734;8.744;2023-02-17T13:34:30;2.83;;;1.35;;
10979;SDS011;5543;51.734;8.744;2023-02-17T13:37:00;2.33;;;1.38;;
10979;SDS011;5543;51.734;8.744;2023-02-17T13:39:41;2.53;;;1.65;;
10979;SDS011;5543;51.734;8.744;2023-02-17T13:45:01;2.17;;;1.83;;
10979;SDS011;5543;51.734;8.744;2023-02-17T13:47:38;4.78;;;2.22;;
10979;SDS011;5543;51.734;8.744;2023-02-17T13:50:20;3.78;;;2.22;;
10979;SDS011;5543;51.734;8.744;2023-02-17T13:52:54;3.00;;;1.92;;
10979;SDS011;5543;51.734;8.744;2023-02-17T13:55:23;3.63;;;2.33;;
10979;SDS011;5543;51.734;8.744;2023-02-17T13:57:52;2.92;;;2.22;;
10979;SDS011;5543;51.734;8.744;2023-02-17T14:00:24;4.47;;;3.05;;
10979;SDS011;5543;51.734;8.744;2023-02-17T14:02:55;4.95;;;2.83;;
10979;SDS011;5543;51.734;8.744;2023-02-17T14:05:25;5.25;;;2.83;;
10979;SDS011;5543;51.734;8.744;2023-02-17T14:08:03;6.30;;;2.83;;
10979;SDS011;5543;51.734;8.744;2023-02-17T14:10:33;5.78;;;2.47;;
10979;SDS011;5543;51.734;8.744;2023-02-17T14:13:03;4.03;;;3.15;;
10979;SDS011;5543;51.734;8.744;2023-02-17T14:15:32;3.92;;;2.72;;
10979;SDS011;5543;51.734;8.744;2023-02-17T14:18:10;4.40;;;2.60;;
10979;SDS011;5543;51.734;8.744;2023-02-17T14:20:42;5.47;;;3.83;;
10979;SDS011;5543;51.734;8.744;2023-02-17T14:23:11;4.95;;;3.10;;
10979;SDS011;5543;51.734;8.744;2023-02-17T14:25:41;7.88;;;3.50;;
10979;SDS011;5543;51.734;8.744;2023-02-17T14:28:18;7.18;;;3.30;;
10979;SDS011;5543;51.734;8.744;2023-02-17T14:30:48;5.38;;;3.28;;
10979;SDS011;5543;51.734;8.744;2023-02-17T14:33:19;5.55;;;3.42;;
10979;SDS011;5543;51.734;8.744;2023-02-17T14:35:50;7.43;;;3.47;;
10979;SDS011;5543;51.734;8.744;2023-02-17T14:38:21;5.65;;;3.03;;
10979;SDS011;5543;51.734;8.744;2023-02-17T14:40:50;4.25;;;3.10;;
10979;SDS011;5543;51.734;8.744;2023-02-17T14:43:21;6.93;;;3.75;;
10979;SDS011;5543;51.734;8.744;2023-02-17T14:45:50;5.88;;;3.40;;
10979;SDS011;5543;51.734;8.744;2023-02-17T14:48:19;4.60;;;2.80;;
10979;SDS011;5543;51.734;8.744;2023-02-17T14:50:47;6.85;;;4.03;;
10979;SDS011;5543;51.734;8.744;2023-02-17T14:53:17;6.85;;;4.35;;
10979;SDS011;5543;51.734;8.744;2023-02-17T14:55:50;6.35;;;3.58;;
10979;SDS011;5543;51.734;8.744;2023-02-17T14:58:23;5.88;;;3.65;;
10979;SDS011;5543;51.734;8.744;2023-02-17T15:00:53;8.30;;;4.03;;
10979;SDS011;5543;51.734;8.744;2023-02-17T15:03:22;6.22;;;3.67;;
10979;SDS011;5543;51.734;8.744;2023-02-17T15:05:50;7.90;;;3.80;;
10979;SDS011;5543;51.734;8.744;2023-02-17T15:08:20;4.28;;;2.80;;
10979;SDS011;5543;51.734;8.744;2023-02-17T15:10:50;5.55;;;3.72;;
10979;SDS011;5543;51.734;8.744;2023-02-17T15:13:19;4.05;;;3.00;;
10979;SDS011;5543;51.734;8.744;2023-02-17T15:15:48;2.58;;;2.10;;
10979;SDS011;5543;51.734;8.744;2023-02-17T15:18:18;3.55;;;2.45;;
10979;SDS011;5543;51.734;8.744;2023-02-17T15:20:47;3.50;;;2.40;;
10979;SDS011;5543;51.734;8.744;2023-02-17T15:23:18;3.05;;;1.92;;
10979;SDS011;5543;51.734;8.744;2023-02-17T15:25:48;3.28;;;2.63;;
10979;SDS011;5543;51.734;8.744;2023-02-17T15:28:19;4.60;;;2.20;;
10979;SDS011;5543;51.734;8.744;2023-02-17T15:30:48;3.85;;;2.08;;
10979;SDS011;5543;51.734;8.744;2023-02-17T15:33:19;4.75;;;1.95;;
10979;SDS011;5543;51.734;8.744;2023-02-17T15:35:50;2.42;;;1.58;;
10979;SDS011;5543;51.734;8.744;2023-02-17T15:38:20;2.75;;;1.85;;
10979;SDS011;5543;51.734;8.744;2023-02-17T15:40:48;1.75;;;1.50;;
10979;SDS011;5543;51.734;8.744;2023-02-17T15:43:17;3.40;;;1.65;;